Time;durP1;ratioP1;P1;durP2;ratioP2;P2;SDS_P1;SDS_P2;PMS_P1;PMS_P2;Temp;Humidity;BMP_temperature;BMP_pressure;BME280_temperature;BME280_humidity;BME280_pressure;Samples;Min_cycle;Max_cycle;Signal;HPM_P1;HPM_P2
2022/06/18 00:00:21;;;;;;;19.50;12.45;;;18.80;99.90;;;;;;5070443;28;20037;-66
2022/06/18 00:02:46;;;;;;;14.60;13.07;;;18.80;99.90;;;;;;5069950;28;20074;-66
2022/06/18 00:05:14;;;;;;;14.80;12.02;;;18.70;99.90;;;;;;5070266;28;20052;-66
2022/06/18 00:07:45;;;;;;;;;;;18.70;99.90;;;;;;5069702;28;20052;-65
2022/06/18 00:10:19;;;;;;;15.90;13.48;;;18.70;99.90;;;;;;5069361;28;20381;-66
2022/06/18 00:15:36;;;;;;;14.30;11.88;;;18.60;99.90;;;;;;5070238;28;20056;-66
2022/06/18 00:18:03;;;;;;;14.00;12.43;;;18.60;99.90;;;;;;5070116;28;20502;-66
2022/06/18 00:20:33;;;;;;;14.65;11.65;;;18.50;99.90;;;;;;5070193;28;20047;-66
2022/06/18 00:23:01;;;;;;;15.45;13.95;;;18.40;99.90;;;;;;5069441;28;20532;-66
2022/06/18 00:25:33;;;;;;;20.55;12.85;;;18.40;99.90;;;;;;5069718;28;20123;-66
2022/06/18 00:28:00;;;;;;;20.85;13.18;;;18.40;99.90;;;;;;5069902;28;20033;-66
2022/06/18 00:30:28;;;;;;;13.88;12.57;;;18.40;99.90;;;;;;5069621;28;20123;-66
2022/06/18 00:32:54;;;;;;;16.00;13.98;;;18.40;99.90;;;;;;5069941;28;20048;-66
2022/06/18 00:35:20;;;;;;;18.45;14.13;;;18.30;99.90;;;;;;5069470;28;20051;-66
2022/06/18 00:37:56;;;;;;;14.30;12.60;;;18.30;99.90;;;;;;5069714;28;20032;-66
2022/06/18 00:40:29;;;;;;;22.67;14.07;;;18.30;99.90;;;;;;5053288;28;20045;-66
2022/06/18 00:43:04;;;;;;;16.33;14.57;;;18.20;99.90;;;;;;5060363;28;20141;-66
2022/06/18 00:45:31;;;;;;;18.90;14.60;;;18.20;99.90;;;;;;5060839;28;20084;-66
2022/06/18 00:48:09;;;;;;;16.55;14.48;;;18.20;99.90;;;;;;5059560;28;20505;-66
2022/06/18 00:50:44;;;;;;;18.50;12.77;;;18.20;99.90;;;;;;5080906;28;20044;-66
2022/06/18 00:53:28;;;;;;;18.00;14.40;;;18.20;99.90;;;;;;5067540;28;20055;-66
2022/06/18 00:56:12;;;;;;;17.65;14.60;;;18.10;99.90;;;;;;5069242;28;20420;-66
2022/06/18 00:58:41;;;;;;;15.35;13.90;;;18.10;99.90;;;;;;5069358;28;20398;-66
2022/06/18 01:01:18;;;;;;;16.13;13.95;;;18.10;99.90;;;;;;5067644;28;20036;-66
2022/06/18 01:03:46;;;;;;;16.40;14.73;;;18.10;99.90;;;;;;5069429;28;20161;-66
2022/06/18 01:06:14;;;;;;;16.77;14.13;;;18.10;99.90;;;;;;5067922;28;20161;-66
2022/06/18 01:08:40;;;;;;;22.02;15.25;;;18.10;99.90;;;;;;5067608;28;20041;-67
2022/06/18 01:11:19;;;;;;;19.83;14.88;;;18.10;99.90;;;;;;5069228;28;20062;-66
2022/06/18 01:13:45;;;;;;;20.70;17.77;;;18.10;99.90;;;;;;5049284;28;20147;-66
2022/06/18 01:16:11;;;;;;;18.83;15.57;;;18.10;99.90;;;;;;5070749;28;20116;-66
2022/06/18 01:18:38;;;;;;;17.90;15.60;;;18.10;99.90;;;;;;5069345;28;20040;-66
2022/06/18 01:21:27;;;;;;;17.63;15.77;;;18.10;99.90;;;;;;5069101;28;20044;-66
2022/06/18 01:24:03;;;;;;;17.05;15.38;;;18.10;99.90;;;;;;5068746;28;20051;-66
2022/06/18 01:26:29;;;;;;;18.15;14.77;;;18.10;99.90;;;;;;5068755;28;20863;-66
2022/06/18 01:28:54;;;;;;;18.48;16.73;;;18.10;99.90;;;;;;5068458;28;20036;-66
2022/06/18 01:31:20;;;;;;;25.05;15.93;;;18.10;99.90;;;;;;5066145;28;20044;-66
2022/06/18 01:33:47;;;;;;;23.25;17.80;;;18.00;99.90;;;;;;5067158;28;20561;-66
2022/06/18 01:36:13;;;;;;;19.85;16.50;;;18.00;99.90;;;;;;5057035;28;20170;-66
2022/06/18 01:38:44;;;;;;;26.70;19.08;;;18.10;99.90;;;;;;5065348;28;20040;-66
2022/06/18 01:44:05;;;;;;;20.95;17.58;;;18.10;99.90;;;;;;5065099;28;20094;-66
2022/06/18 01:46:33;;;;;;;19.75;17.73;;;18.00;99.90;;;;;;5063537;28;20047;-66
2022/06/18 01:49:01;;;;;;;21.05;18.05;;;18.00;99.90;;;;;;5075338;28;20040;-66
2022/06/18 01:51:35;;;;;;;21.30;18.00;;;18.00;99.90;;;;;;5066132;28;20039;-66
2022/06/18 01:54:16;;;;;;;22.20;17.92;;;18.00;99.90;;;;;;5068370;28;20386;-66
2022/06/18 01:56:50;;;;;;;21.92;18.90;;;18.00;99.90;;;;;;5073144;28;20469;-66
2022/06/18 01:59:23;;;;;;;21.60;19.10;;;17.90;99.90;;;;;;5066152;28;20043;-66
2022/06/18 02:01:50;;;;;;;23.35;20.77;;;18.00;99.90;;;;;;5080762;28;20051;-66
2022/06/18 02:04:18;;;;;;;22.08;19.70;;;17.90;99.90;;;;;;5068974;28;20056;-66
2022/06/18 02:06:45;;;;;;;29.30;20.73;;;17.90;99.90;;;;;;5067825;28;20474;-66
2022/06/18 02:09:30;;;;;;;22.85;18.05;;;17.90;99.90;;;;;;5067678;28;20048;-66
2022/06/18 02:11:57;;;;;;;24.52;20.27;;;17.90;99.90;;;;;;5067963;28;20074;-66
2022/06/18 02:14:25;;;;;;;23.17;20.80;;;17.90;99.90;;;;;;5066944;28;20544;-67
2022/06/18 02:16:52;;;;;;;32.10;19.50;;;17.80;99.90;;;;;;5068157;28;20044;-67
2022/06/18 02:19:19;;;;;;;27.48;21.85;;;17.90;99.90;;;;;;5067163;28;20494;-67
2022/06/18 02:21:48;;;;;;;26.02;21.10;;;17.80;99.90;;;;;;5067428;28;20046;-66
2022/06/18 02:24:16;;;;;;;23.50;21.00;;;17.80;99.90;;;;;;5054885;28;20049;-67
2022/06/18 02:26:45;;;;;;;24.70;22.20;;;17.80;99.90;;;;;;5074004;28;20045;-67
2022/06/18 02:29:31;;;;;;;29.42;22.95;;;17.80;99.90;;;;;;5068068;28;20040;-67
2022/06/18 02:31:58;;;;;;;30.70;23.67;;;17.80;99.90;;;;;;5065735;28;20444;-67
2022/06/18 02:34:28;;;;;;;28.25;22.55;;;17.80;99.90;;;;;;5067629;28;20041;-67
2022/06/18 02:36:54;;;;;;;27.35;22.25;;;17.80;99.90;;;;;;5066785;28;20052;-67
2022/06/18 02:39:34;;;;;;;27.60;21.15;;;17.80;99.90;;;;;;5059170;28;20058;-67
2022/06/18 02:42:08;;;;;;;25.60;22.95;;;17.80;99.90;;;;;;5066866;28;20041;-67
2022/06/18 02:44:34;;;;;;;30.92;24.38;;;17.80;99.90;;;;;;5067530;28;20052;-67
2022/06/18 02:47:05;;;;;;;28.88;25.85;;;17.80;99.90;;;;;;5067492;28;20043;-67
2022/06/18 02:49:52;;;;;;;36.58;23.08;;;17.70;99.90;;;;;;5066834;28;20054;-67
2022/06/18 02:52:19;;;;;;;28.88;21.65;;;17.70;99.90;;;;;;5053410;28;20048;-67
2022/06/18 02:54:45;;;;;;;22.63;20.20;;;17.60;99.90;;;;;;5067593;28;20040;-67
2022/06/18 02:57:20;;;;;;;23.20;20.70;;;17.70;99.90;;;;;;5067228;28;20055;-67
2022/06/18 02:59:45;;;;;;;21.33;19.02;;;17.60;99.90;;;;;;5067548;28;20178;-67
2022/06/18 03:02:11;;;;;;;25.85;20.00;;;17.50;99.90;;;;;;5070706;28;20079;-67
2022/06/18 03:04:36;;;;;;;22.80;20.50;;;17.60;99.90;;;;;;5071894;28;20049;-67
2022/06/18 03:07:02;;;;;;;24.58;21.98;;;17.50;99.90;;;;;;5071218;28;20093;-67
2022/06/18 03:09:28;;;;;;;35.28;19.98;;;17.50;99.90;;;;;;5061972;28;20048;-67
2022/06/18 03:12:08;;;;;;;24.40;21.13;;;17.50;99.90;;;;;;5062777;28;20049;-67
2022/06/18 03:14:34;;;;;;;27.00;22.05;;;17.40;99.90;;;;;;5057973;28;20037;-67
2022/06/18 03:17:00;;;;;;;26.10;21.95;;;17.40;99.90;;;;;;5067239;28;20040;-67
2022/06/18 03:19:33;;;;;;;24.45;21.00;;;17.40;99.90;;;;;;5070741;28;20048;-67
2022/06/18 03:22:20;;;;;;;26.77;23.08;;;17.40;99.90;;;;;;5071938;28;20264;-67
2022/06/18 03:24:46;;;;;;;22.08;19.83;;;17.30;99.90;;;;;;5067319;28;20056;-67
2022/06/18 03:27:14;;;;;;;28.05;23.60;;;17.30;99.90;;;;;;5078076;28;20051;-67
2022/06/18 03:29:40;;;;;;;38.05;21.80;;;17.30;99.90;;;;;;5064400;28;20387;-67
2022/06/18 03:32:07;;;;;;;28.25;24.13;;;17.30;99.90;;;;;;5059792;28;20032;-67
2022/06/18 03:34:33;;;;;;;34.75;26.00;;;17.30;99.90;;;;;;5070962;28;20064;-67
2022/06/18 03:36:58;;;;;;;30.48;25.00;;;17.30;99.90;;;;;;5083589;28;20047;-67
2022/06/18 03:39:25;;;;;;;29.95;25.90;;;17.30;99.90;;;;;;5061871;28;20161;-67
2022/06/18 03:41:51;;;;;;;36.90;26.48;;;17.30;99.90;;;;;;5073768;28;20448;-67
2022/06/18 03:44:17;;;;;;;33.28;29.10;;;17.30;99.90;;;;;;5080471;28;20041;-67
2022/06/18 03:46:44;;;;;;;29.13;23.58;;;17.30;99.90;;;;;;5060140;28;20049;-67
2022/06/18 03:49:28;;;;;;;39.92;26.65;;;17.30;99.90;;;;;;5070189;28;20508;-67
2022/06/18 03:51:55;;;;;;;33.85;28.52;;;17.40;99.90;;;;;;5070728;28;20080;-67
2022/06/18 03:54:21;;;;;;;35.87;28.13;;;17.40;99.90;;;;;;5070781;28;20047;-67
2022/06/18 03:56:47;;;;;;;32.17;27.85;;;17.40;99.90;;;;;;5070584;28;20044;-67
2022/06/18 03:59:14;;;;;;;31.42;26.85;;;17.50;99.90;;;;;;5069461;28;20417;-67
2022/06/18 04:01:40;;;;;;;39.75;28.65;;;17.50;99.90;;;;;;5080689;28;20050;-67
2022/06/18 04:04:10;;;;;;;35.17;29.55;;;17.50;99.90;;;;;;5071484;28;20509;-67
2022/06/18 04:06:40;;;;;;;33.65;30.05;;;17.60;99.90;;;;;;5070809;28;20127;-67
2022/06/18 04:09:08;;;;;;;29.80;25.88;;;17.60;99.90;;;;;;5070124;28;20047;-67
2022/06/18 04:11:33;;;;;;;35.25;30.75;;;17.60;99.90;;;;;;5069953;28;20051;-66
2022/06/18 04:13:59;;;;;;;41.33;29.40;;;17.70;99.90;;;;;;5071081;28;20045;-67
2022/06/18 04:16:25;;;;;;;37.42;31.05;;;17.70;99.90;;;;;;5082222;28;20040;-67
2022/06/18 04:18:51;;;;;;;33.67;28.58;;;17.80;99.90;;;;;;5070221;28;20402;-67
2022/06/18 04:21:17;;;;;;;42.92;30.95;;;17.80;99.90;;;;;;5070208;28;20047;-67
2022/06/18 04:23:43;;;;;;;46.03;32.75;;;17.80;99.90;;;;;;5068150;28;20043;-67
2022/06/18 04:26:10;;;;;;;41.35;33.38;;;17.90;99.90;;;;;;5065040;28;20967;-67
2022/06/18 04:28:37;;;;;;;48.65;34.45;;;18.00;99.90;;;;;;5081971;28;20461;-67
2022/06/18 04:31:04;;;;;;;50.00;33.67;;;18.10;99.90;;;;;;5068117;28;20463;-67
2022/06/18 04:33:29;;;;;;;40.60;32.55;;;18.10;99.90;;;;;;5069577;28;20076;-66
2022/06/18 04:35:57;;;;;;;52.85;34.45;;;18.10;99.90;;;;;;5068056;28;20416;-66
2022/06/18 04:38:24;;;;;;;45.63;35.45;;;18.20;99.90;;;;;;5069541;28;20048;-67
2022/06/18 04:40:51;;;;;;;46.03;31.73;;;18.20;99.90;;;;;;5069569;28;20056;-67
2022/06/18 04:43:19;;;;;;;43.80;32.88;;;18.30;99.90;;;;;;5063508;28;20036;-66
2022/06/18 04:45:44;;;;;;;42.83;34.67;;;18.30;99.90;;;;;;5065373;28;20051;-66
2022/06/18 04:48:12;;;;;;;50.35;33.92;;;18.30;99.90;;;;;;5074047;28;20063;-67
2022/06/18 04:50:39;;;;;;;51.60;35.40;;;18.40;99.90;;;;;;5076197;28;20047;-67
2022/06/18 04:53:06;;;;;;;54.70;34.83;;;18.40;99.90;;;;;;5070661;28;20044;-66
2022/06/18 04:55:33;;;;;;;42.40;34.92;;;18.50;99.90;;;;;;5066296;28;20044;-68
2022/06/18 04:57:59;;;;;;;48.92;35.22;;;18.50;99.90;;;;;;5058583;28;20041;-67
2022/06/18 05:00:24;;;;;;;50.05;36.35;;;18.50;99.90;;;;;;5065561;28;20051;-67
2022/06/18 05:02:50;;;;;;;52.03;36.75;;;18.60;99.90;;;;;;5069807;28;20050;-67
2022/06/18 05:05:20;;;;;;;41.15;33.30;;;18.60;99.90;;;;;;5068709;28;20054;-67
2022/06/18 05:07:46;;;;;;;43.97;35.40;;;18.60;99.90;;;;;;5053676;28;20177;-66
2022/06/18 05:10:12;;;;;;;51.40;35.80;;;18.70;99.90;;;;;;5065200;28;20045;-67
2022/06/18 05:12:38;;;;;;;43.95;34.28;;;18.70;99.90;;;;;;5068228;28;20040;-67
2022/06/18 05:15:06;;;;;;;55.63;36.08;;;18.70;99.90;;;;;;5068131;28;20063;-67
2022/06/18 05:17:33;;;;;;;42.58;32.25;;;18.80;99.90;;;;;;5068724;28;20048;-67
2022/06/18 05:19:59;;;;;;;43.10;36.38;;;18.80;99.90;;;;;;5062461;28;20058;-67
2022/06/18 05:22:25;;;;;;;62.53;36.53;;;18.80;99.90;;;;;;5064372;28;20036;-67
2022/06/18 05:24:51;;;;;;;53.55;36.58;;;18.80;99.90;;;;;;5061187;28;20051;-67
2022/06/18 05:27:22;;;;;;;54.85;38.45;;;18.90;99.90;;;;;;5069381;28;20041;-67
2022/06/18 05:29:48;;;;;;;46.58;35.30;;;18.90;99.90;;;;;;5063807;28;20106;-67
2022/06/18 05:32:14;;;;;;;63.25;39.40;;;19.00;99.90;;;;;;5077800;28;20036;-67
2022/06/18 05:34:39;;;;;;;45.28;34.72;;;19.00;99.90;;;;;;5064176;28;20519;-68
2022/06/18 05:37:13;;;;;;;48.40;36.90;;;19.00;99.90;;;;;;5065073;28;20044;-66
2022/06/18 05:39:38;;;;;;;53.67;34.92;;;19.10;99.90;;;;;;5068656;28;20406;-66
2022/06/18 05:42:04;;;;;;;40.63;34.75;;;19.20;99.90;;;;;;5061063;28;20037;-66
2022/06/18 05:44:30;;;;;;;41.60;31.90;;;19.30;99.90;;;;;;5068482;28;20033;-66
2022/06/18 05:46:55;;;;;;;44.65;33.83;;;19.40;99.90;;;;;;5068159;28;20045;-67
2022/06/18 05:49:21;;;;;;;50.25;33.38;;;19.50;99.90;;;;;;5068207;28;20037;-67
2022/06/18 05:51:47;;;;;;;35.25;28.80;;;19.60;99.90;;;;;;5067922;28;20516;-66
2022/06/18 05:54:12;;;;;;;38.03;32.38;;;19.70;99.90;;;;;;5067505;28;20557;-67
2022/06/18 05:56:38;;;;;;;44.03;31.08;;;19.90;99.90;;;;;;5068188;28;20032;-65
2022/06/18 05:59:04;;;;;;;42.72;32.53;;;19.90;99.90;;;;;;5067135;28;20036;-64
2022/06/18 06:01:29;;;;;;;43.30;29.15;;;20.10;99.90;;;;;;5067736;28;20077;-65
2022/06/18 06:03:56;;;;;;;39.75;30.67;;;20.20;99.90;;;;;;5067711;28;20398;-65
2022/06/18 06:06:22;;;;;;;43.53;31.77;;;20.30;99.90;;;;;;5066926;28;20028;-65
2022/06/18 06:08:49;;;;;;;44.13;32.03;;;20.40;99.90;;;;;;5068009;28;20041;-65
2022/06/18 06:11:30;;;;;;;35.90;27.95;;;20.50;99.90;;;;;;5062372;28;20041;-65
2022/06/18 06:13:58;;;;;;;42.40;25.73;;;20.50;99.90;;;;;;5066135;28;20127;-65
2022/06/18 06:16:24;;;;;;;43.13;28.15;;;20.60;99.90;;;;;;5063877;28;20087;-65
2022/06/18 06:18:50;;;;;;;46.72;29.77;;;20.70;99.90;;;;;;5048266;28;20047;-65
2022/06/18 06:21:16;;;;;;;41.58;27.40;;;20.80;99.90;;;;;;5064318;28;20042;-65
2022/06/18 06:23:41;;;;;;;42.33;28.98;;;20.90;99.90;;;;;;5067965;28;20036;-65
2022/06/18 06:26:21;;;;;;;31.90;24.25;;;21.00;99.90;;;;;;5067195;28;20531;-65
2022/06/18 06:28:47;;;;;;;40.55;28.85;;;21.20;99.90;;;;;;5067776;28;20032;-66
2022/06/18 06:31:13;;;;;;;41.58;26.98;;;21.30;99.90;;;;;;5063375;28;20151;-65
2022/06/18 06:33:40;;;;;;;41.63;27.75;;;21.40;99.90;;;;;;5052753;28;20037;-65
2022/06/18 06:36:07;;;;;;;42.30;26.23;;;21.50;99.90;;;;;;5066384;28;20462;-65
2022/06/18 06:38:32;;;;;;;33.70;27.80;;;21.70;99.90;;;;;;5066970;28;20048;-64
2022/06/18 06:40:59;;;;;;;59.08;28.58;;;21.90;99.90;;;;;;5066373;28;20092;-65
2022/06/18 06:43:25;;;;;;;46.20;26.05;;;22.10;99.90;;;;;;5065742;28;20080;-65
2022/06/18 06:45:51;;;;;;;38.15;24.15;;;22.20;99.90;;;;;;5067546;28;20123;-65
2022/06/18 06:48:16;;;;;;;39.20;23.55;;;22.40;99.90;;;;;;5064747;28;20116;-65
2022/06/18 06:50:43;;;;;;;32.78;23.98;;;22.60;99.90;;;;;;5066546;28;20123;-65
2022/06/18 06:53:10;;;;;;;33.40;26.35;;;22.90;99.90;;;;;;5069646;28;20881;-65
2022/06/18 06:58:23;;;;;;;33.42;21.67;;;23.30;99.90;;;;;;5060962;28;20076;-66
2022/06/18 07:00:52;;;;;;;32.83;26.27;;;23.50;99.90;;;;;;5060777;28;20024;-66
2022/06/18 07:03:21;;;;;;;47.65;25.85;;;23.80;99.90;;;;;;5066798;28;20059;-66
2022/06/18 07:05:47;;;;;;;41.33;29.92;;;23.90;99.90;;;;;;5063634;28;20052;-66
2022/06/18 07:08:13;;;;;;;29.83;23.52;;;23.80;99.90;;;;;;5060026;28;20033;-65
2022/06/18 07:10:39;;;;;;;46.50;27.27;;;24.00;99.90;;;;;;5061103;28;20083;-65
2022/06/18 07:13:06;;;;;;;36.63;22.90;;;24.10;99.90;;;;;;5065475;28;20041;-65
2022/06/18 07:15:34;;;;;;;26.80;21.02;;;24.30;99.90;;;;;;5075514;28;20396;-65
2022/06/18 07:18:01;;;;;;;29.88;21.45;;;24.50;99.90;;;;;;5066694;28;20052;-65
2022/06/18 07:20:27;;;;;;;;;;;24.70;99.90;;;;;;5066568;28;20036;-65
2022/06/18 07:22:54;;;;;;;24.08;19.70;;;24.50;99.90;;;;;;5073012;28;19927;-65
2022/06/18 07:25:20;;;;;;;36.47;21.23;;;24.40;99.90;;;;;;5058663;28;20068;-65
2022/06/18 07:27:45;;;;;;;34.35;18.65;;;24.60;99.90;;;;;;5065867;28;20037;-65
2022/06/18 07:30:11;;;;;;;28.17;19.67;;;24.70;99.90;;;;;;5065764;28;20696;-65
2022/06/18 07:32:44;;;;;;;38.15;18.98;;;24.80;99.90;;;;;;5066814;28;20405;-65
2022/06/18 07:35:16;;;;;;;22.67;17.33;;;24.90;99.90;;;;;;5062382;28;20102;-64
2022/06/18 07:37:43;;;;;;;24.95;16.98;;;25.10;99.90;;;;;;5058831;28;20052;-64
2022/06/18 07:40:11;;;;;;;23.17;19.33;;;25.10;99.90;;;;;;5069383;28;20083;-64
2022/06/18 07:42:36;;;;;;;33.00;18.30;;;25.20;99.90;;;;;;5070551;28;20497;-64
2022/06/18 07:45:04;;;;;;;29.73;16.75;;;25.20;99.90;;;;;;5066849;28;20041;-65
2022/06/18 07:47:30;;;;;;;27.95;16.55;;;25.30;99.90;;;;;;5074327;28;20051;-65
2022/06/18 07:49:56;;;;;;;28.73;18.55;;;25.60;99.90;;;;;;5068635;28;20041;-65
2022/06/18 07:52:21;;;;;;;24.17;15.10;;;25.70;99.90;;;;;;5069533;28;20032;-66
2022/06/18 07:54:47;;;;;;;25.48;19.33;;;25.90;99.90;;;;;;5065433;28;20072;-66
2022/06/18 07:57:13;;;;;;;24.20;14.90;;;26.10;99.90;;;;;;5063962;28;20055;-65
2022/06/18 07:59:38;;;;;;;26.20;19.17;;;26.10;99.90;;;;;;5068277;28;20048;-65
2022/06/18 08:02:06;;;;;;;26.67;18.70;;;26.00;99.90;;;;;;5068933;28;20412;-66
2022/06/18 08:04:32;;;;;;;36.17;20.27;;;26.00;99.90;;;;;;5070118;28;20583;-65
2022/06/18 08:06:57;;;;;;;34.40;20.17;;;25.70;99.90;;;;;;5057449;28;20144;-65
2022/06/18 08:09:23;;;;;;;18.02;13.80;;;25.70;99.90;;;;;;5067052;28;20041;-65
2022/06/18 08:11:50;;;;;;;20.50;13.82;;;25.80;99.90;;;;;;5070199;28;20047;-65
2022/06/18 08:14:16;;;;;;;27.13;16.90;;;26.00;99.90;;;;;;5068820;28;20087;-65
2022/06/18 08:16:44;;;;;;;23.45;16.00;;;26.10;99.90;;;;;;5070667;28;20421;-65
2022/06/18 08:19:10;;;;;;;23.48;16.65;;;26.10;99.90;;;;;;5070517;28;20360;-66
2022/06/18 08:21:43;;;;;;;28.47;17.30;;;26.00;99.90;;;;;;5068335;28;20032;-65
2022/06/18 08:24:17;;;;;;;30.30;18.40;;;26.10;99.90;;;;;;5067593;28;20048;-65
2022/06/18 08:26:44;;;;;;;23.00;13.43;;;26.10;99.90;;;;;;5070246;28;20774;-66
2022/06/18 08:29:13;;;;;;;21.58;16.05;;;26.40;99.90;;;;;;5069987;28;20874;-67
2022/06/18 08:31:39;;;;;;;19.40;14.57;;;26.50;99.90;;;;;;5069580;28;20129;-65
2022/06/18 08:34:04;;;;;;;24.10;14.85;;;26.60;99.90;;;;;;5069532;28;20600;-65
2022/06/18 08:36:31;;;;;;;29.02;18.23;;;26.60;99.90;;;;;;5068526;28;20130;-64
2022/06/18 08:38:57;;;;;;;19.58;11.23;;;26.60;99.90;;;;;;5069618;28;20417;-64
2022/06/18 08:41:35;;;;;;;20.38;12.93;;;26.60;99.80;;;;;;5069212;28;20040;-65
2022/06/18 08:44:25;;;;;;;19.45;11.90;;;26.50;99.60;;;;;;5068459;28;20405;-65
2022/06/18 08:46:59;;;;;;;20.70;13.98;;;26.60;99.90;;;;;;5069393;28;20123;-65
2022/06/18 08:49:45;;;;;;;22.35;13.90;;;26.80;93.30;;;;;;5069199;28;20135;-65
2022/06/18 08:52:17;;;;;;;28.45;15.82;;;26.50;97.10;;;;;;5067188;28;20127;-65
2022/06/18 08:54:51;;;;;;;23.23;14.90;;;26.40;99.90;;;;;;5069928;28;20554;-65
2022/06/18 08:57:58;;;;;;;26.65;19.42;;;26.50;99.90;;;;;;5067482;28;20037;-65
2022/06/18 09:00:50;;;;;;;28.13;17.20;;;26.90;98.00;;;;;;5046534;28;20064;-65
2022/06/18 09:03:54;;;;;;;17.75;12.30;;;27.20;94.40;;;;;;5046915;28;20068;-65
2022/06/18 09:06:38;;;;;;;22.25;15.23;;;27.50;93.40;;;;;;5053168;28;20048;-67
2022/06/18 09:09:23;;;;;;;13.38;11.32;;;27.40;82.70;;;;;;5068893;28;20059;-67
2022/06/18 09:11:56;;;;;;;15.82;12.77;;;27.40;80.40;;;;;;5069087;28;20097;-66
2022/06/18 09:15:12;;;;;;;22.27;14.52;;;27.40;82.10;;;;;;5067357;28;20037;-66
2022/06/18 09:17:45;;;;;;;21.20;14.40;;;27.60;82.60;;;;;;5085321;28;20044;-66
2022/06/18 09:20:17;;;;;;;19.40;13.98;;;27.70;82.60;;;;;;5077229;28;20067;-67
2022/06/18 09:22:50;;;;;;;23.92;15.63;;;27.80;83.30;;;;;;5069896;28;20157;-67
2022/06/18 09:25:18;;;;;;;17.10;13.48;;;28.00;82.50;;;;;;5066578;28;20049;-67
2022/06/18 09:27:51;;;;;;;24.63;15.18;;;28.10;82.70;;;;;;5064026;28;20114;-67
2022/06/18 09:30:25;;;;;;;23.77;13.10;;;28.20;82.70;;;;;;5055414;28;20036;-67
2022/06/18 09:32:54;;;;;;;19.42;13.68;;;28.30;79.90;;;;;;5068295;28;20049;-66
2022/06/18 09:35:36;;;;;;;25.65;13.75;;;28.30;77.30;;;;;;5065211;28;20040;-67
2022/06/18 09:38:14;;;;;;;16.75;11.43;;;28.40;77.20;;;;;;5067368;28;20089;-66
2022/06/18 09:40:49;;;;;;;24.20;10.40;;;28.50;76.70;;;;;;5059589;28;20453;-66
2022/06/18 09:43:26;;;;;;;20.25;11.27;;;28.60;78.20;;;;;;5048069;28;20036;-67
2022/06/18 09:45:56;;;;;;;15.40;12.25;;;28.60;74.80;;;;;;5067811;28;20489;-67
2022/06/18 09:48:22;;;;;;;15.88;10.88;;;28.50;75.60;;;;;;5068122;28;20051;-67
2022/06/18 09:50:52;;;;;;;17.40;9.48;;;28.50;76.10;;;;;;5067469;28;20056;-66
2022/06/18 09:53:20;;;;;;;12.27;9.95;;;28.70;79.50;;;;;;5068493;28;20055;-66
2022/06/18 09:56:11;;;;;;;14.07;10.60;;;28.50;80.40;;;;;;5068405;28;20040;-67
2022/06/18 09:58:55;;;;;;;16.30;10.35;;;28.60;72.80;;;;;;5054609;28;20533;-66
2022/06/18 10:01:27;;;;;;;11.43;9.75;;;28.40;73.50;;;;;;5057690;28;20533;-67
2022/06/18 10:06:57;;;;;;;13.40;9.13;;;28.30;74.90;;;;;;5067845;28;20043;-66
2022/06/18 10:09:42;;;;;;;13.98;8.18;;;28.40;75.50;;;;;;5068270;28;20056;-67
2022/06/18 10:12:24;;;;;;;11.68;6.68;;;28.80;75.70;;;;;;5067868;28;20049;-67
2022/06/18 10:15:03;;;;;;;13.65;8.45;;;29.20;71.20;;;;;;5066123;28;20051;-66
2022/06/18 10:17:54;;;;;;;13.25;8.55;;;29.20;68.90;;;;;;5067778;28;20456;-67
2022/06/18 10:20:34;;;;;;;14.20;7.22;;;29.40;67.90;;;;;;5058119;28;20057;-67
2022/06/18 10:23:12;;;;;;;14.95;8.38;;;29.40;70.40;;;;;;5061852;28;20048;-66
2022/06/18 10:25:50;;;;;;;10.27;7.80;;;29.60;69.50;;;;;;5058662;28;20052;-66
2022/06/18 10:28:30;;;;;;;17.38;8.10;;;29.30;66.80;;;;;;5062732;28;20033;-65
2022/06/18 10:31:21;;;;;;;10.98;7.55;;;29.20;69.90;;;;;;5060435;28;20072;-66
2022/06/18 10:34:09;;;;;;;13.05;7.78;;;29.30;66.00;;;;;;5055221;28;20136;-68
2022/06/18 10:37:14;;;;;;;9.57;7.82;;;29.20;68.90;;;;;;5051297;28;20029;-66
2022/06/18 10:39:49;;;;;;;14.77;8.77;;;29.20;67.10;;;;;;5065016;28;20059;-66
2022/06/18 10:42:41;;;;;;;20.92;8.85;;;29.00;71.20;;;;;;5067220;28;20048;-66
2022/06/18 10:45:17;;;;;;;22.17;9.75;;;28.80;71.30;;;;;;5062724;28;20036;-66
2022/06/18 10:47:46;;;;;;;12.05;8.88;;;28.50;78.50;;;;;;5062880;28;20119;-66
2022/06/18 10:50:16;;;;;;;10.85;6.82;;;28.70;80.70;;;;;;5080510;28;20452;-66
2022/06/18 10:52:43;;;;;;;7.93;6.25;;;28.50;77.60;;;;;;5067714;28;20509;-66
2022/06/18 10:55:13;;;;;;;12.77;6.15;;;28.80;77.20;;;;;;5065644;28;20048;-66
2022/06/18 10:57:39;;;;;;;13.65;7.57;;;28.80;74.80;;;;;;5062967;28;20037;-66
2022/06/18 11:00:17;;;;;;;15.05;6.85;;;28.90;72.00;;;;;;5056241;28;20583;-66
2022/06/18 11:02:43;;;;;;;11.02;6.50;;;29.10;75.20;;;;;;5064972;28;20040;-66
2022/06/18 11:05:25;;;;;;;8.75;7.43;;;29.00;79.50;;;;;;5052695;28;20122;-66
2022/06/18 11:07:53;;;;;;;8.77;6.47;;;28.80;82.30;;;;;;5054900;28;20052;-65
2022/06/18 11:10:44;;;;;;;7.53;6.15;;;28.80;81.00;;;;;;5067117;28;20170;-66
2022/06/18 11:13:33;;;;;;;9.32;5.55;;;28.60;80.50;;;;;;5056782;28;20051;-66
2022/06/18 11:16:11;;;;;;;7.22;5.30;;;28.40;82.50;;;;;;5055650;28;20459;-68
2022/06/18 11:18:47;;;;;;;8.38;5.70;;;28.40;82.20;;;;;;5066808;28;20045;-66
2022/06/18 11:21:29;;;;;;;7.78;5.30;;;28.30;90.20;;;;;;5064288;28;20049;-66
2022/06/18 11:24:05;;;;;;;8.82;5.63;;;28.50;94.00;;;;;;5070919;28;20148;-66
2022/06/18 11:26:32;;;;;;;8.68;5.55;;;28.40;89.80;;;;;;5063781;28;20039;-66
2022/06/18 11:29:09;;;;;;;7.70;5.40;;;28.50;89.70;;;;;;5068967;28;20144;-66
2022/06/18 11:31:43;;;;;;;9.93;5.70;;;28.50;85.20;;;;;;5062526;28;20046;-66
2022/06/18 11:34:27;;;;;;;9.90;6.40;;;28.40;90.00;;;;;;5071331;28;20060;-66
2022/06/18 11:36:58;;;;;;;9.80;5.57;;;28.50;92.20;;;;;;5071083;28;20048;-66
2022/06/18 11:39:32;;;;;;;7.68;6.13;;;28.50;90.80;;;;;;5059901;28;20044;-66
2022/06/18 11:42:14;;;;;;;8.07;6.25;;;28.50;91.20;;;;;;5069924;28;20059;-66
2022/06/18 11:44:47;;;;;;;7.68;5.03;;;28.40;89.40;;;;;;5063552;28;20068;-66
2022/06/18 11:47:20;;;;;;;8.75;5.43;;;28.40;91.00;;;;;;5058103;28;20676;-66
2022/06/18 11:50:11;;;;;;;5.45;4.75;;;28.30;88.50;;;;;;5059287;28;20044;-66
2022/06/18 11:53:08;;;;;;;8.13;5.45;;;28.60;90.20;;;;;;5063704;28;20082;-66
2022/06/18 11:55:43;;;;;;;12.70;5.28;;;28.70;84.20;;;;;;5068181;28;20166;-66
2022/06/18 11:58:19;;;;;;;5.68;4.90;;;28.50;82.20;;;;;;5065066;28;20048;-66
2022/06/18 12:00:55;;;;;;;8.75;4.60;;;28.50;88.10;;;;;;5070035;28;20058;-67
2022/06/18 12:03:48;;;;;;;6.93;5.10;;;28.30;91.70;;;;;;5070146;28;20129;-67
2022/06/18 12:06:21;;;;;;;8.43;5.50;;;28.20;93.00;;;;;;5056283;28;20047;-67
2022/06/18 12:08:47;;;;;;;12.10;4.63;;;28.20;92.10;;;;;;5068073;28;20517;-68
2022/06/18 12:11:31;;;;;;;8.85;5.10;;;28.40;90.00;;;;;;5068611;28;20028;-67
2022/06/18 12:14:18;;;;;;;6.75;5.13;;;28.30;93.00;;;;;;5067449;28;20135;-67
2022/06/18 12:16:57;;;;;;;6.78;5.10;;;28.30;90.70;;;;;;5064363;28;20409;-66
2022/06/18 12:19:32;;;;;;;5.43;4.55;;;28.30;92.30;;;;;;5059457;28;20051;-66
2022/06/18 12:22:09;;;;;;;8.10;5.18;;;28.20;91.10;;;;;;5068254;28;20516;-66
2022/06/18 12:24:49;;;;;;;8.82;5.38;;;28.10;91.60;;;;;;5080335;28;20052;-67
2022/06/18 12:27:23;;;;;;;10.82;3.70;;;27.90;91.30;;;;;;5054709;28;20127;-67
2022/06/18 12:29:57;;;;;;;10.60;5.18;;;28.00;92.40;;;;;;5077854;28;20595;-67
2022/06/18 12:32:28;;;;;;;12.73;5.03;;;28.00;89.20;;;;;;5063277;28;20037;-66
2022/06/18 12:35:15;;;;;;;7.18;4.65;;;27.90;92.50;;;;;;5075312;28;20049;-68
2022/06/18 12:37:52;;;;;;;11.37;4.30;;;27.80;94.60;;;;;;5077943;28;20401;-67
2022/06/18 12:40:30;;;;;;;7.97;5.25;;;27.70;91.50;;;;;;5071538;28;20358;-67
2022/06/18 12:43:05;;;;;;;6.78;4.65;;;27.50;92.50;;;;;;5086533;28;20619;-67
2022/06/18 12:45:39;;;;;;;8.18;4.78;;;27.20;96.40;;;;;;5066023;28;20047;-67
2022/06/18 12:48:05;;;;;;;8.15;5.38;;;27.10;98.90;;;;;;5069570;28;20398;-67
2022/06/18 12:50:43;;;;;;;6.35;4.03;;;27.00;99.90;;;;;;5065895;28;20048;-67
2022/06/18 12:53:33;;;;;;;6.95;4.72;;;27.10;99.40;;;;;;5079772;28;20051;-67
2022/06/18 12:56:16;;;;;;;5.10;4.25;;;27.10;98.60;;;;;;5074893;28;20100;-66
2022/06/18 12:58:57;;;;;;;12.60;5.50;;;27.20;99.60;;;;;;5071441;28;20119;-67
2022/06/18 13:01:59;;;;;;;5.90;4.53;;;27.30;96.50;;;;;;5064089;28;20043;-67
2022/06/18 13:04:37;;;;;;;8.02;4.60;;;27.30;99.90;;;;;;5049996;28;20045;-67